createdAt,value
2018-01-29T00:01:40.307Z,9.98
2018-01-29T00:04:07.771Z,9.99
2018-01-29T00:06:35.241Z,9.94
2018-01-29T00:09:02.863Z,9.93
2018-01-29T00:11:30.288Z,9.99
2018-01-29T00:13:57.754Z,9.92
2018-01-29T00:16:25.197Z,9.90
2018-01-29T00:18:52.693Z,9.90
2018-01-29T00:21:20.162Z,9.90
2018-01-29T00:23:47.726Z,9.85
2018-01-29T00:26:15.193Z,9.86
2018-01-29T00:28:42.652Z,9.88
2018-01-29T00:31:10.136Z,9.88
2018-01-29T00:33:37.618Z,9.90
2018-01-29T00:36:05.099Z,9.83
2018-01-29T00:38:32.553Z,9.84
2018-01-29T00:41:00.026Z,9.80
2018-01-29T00:43:27.473Z,9.75
2018-01-29T00:45:54.962Z,9.77
2018-01-29T00:48:22.418Z,9.79
2018-01-29T00:50:49.868Z,9.77
2018-01-29T00:53:17.316Z,9.78
2018-01-29T00:55:44.841Z,9.73
2018-01-29T00:58:12.325Z,9.75
2018-01-29T01:00:39.884Z,9.76
2018-01-29T01:03:07.333Z,9.71
2018-01-29T01:05:34.828Z,9.69
2018-01-29T01:08:02.288Z,9.78
2018-01-29T01:10:29.727Z,9.78
2018-01-29T01:12:57.251Z,9.78
2018-01-29T01:15:24.705Z,9.83
2018-01-29T01:17:52.166Z,9.81
2018-01-29T01:20:19.707Z,9.84
2018-01-29T01:22:47.180Z,9.84
2018-01-29T01:25:14.625Z,9.84
2018-01-29T01:27:42.082Z,9.84
2018-01-29T01:30:09.558Z,9.78
2018-01-29T01:32:37.056Z,9.80
2018-01-29T01:35:04.498Z,9.80
2018-01-29T01:37:31.946Z,9.80
2018-01-29T01:39:59.395Z,9.80
2018-01-29T01:42:26.845Z,9.79
2018-01-29T01:44:54.371Z,9.83
2018-01-29T01:47:21.826Z,9.85
2018-01-29T01:49:49.280Z,9.83
2018-01-29T01:52:16.734Z,9.85
2018-01-29T01:54:44.201Z,9.78
2018-01-29T01:57:11.723Z,9.84
2018-01-29T01:59:39.196Z,9.82
2018-01-29T02:02:07.076Z,9.84
2018-01-29T02:04:34.535Z,9.82
2018-01-29T02:07:02.012Z,9.81
2018-01-29T02:09:29.465Z,9.85
2018-01-29T02:11:56.920Z,9.79
2018-01-29T02:14:24.381Z,9.82
2018-01-29T02:16:51.845Z,9.85
2018-01-29T02:19:19.369Z,9.81
2018-01-29T02:21:46.933Z,9.87
2018-01-29T02:24:14.390Z,9.88
2018-01-29T02:26:41.875Z,9.91
2018-01-29T02:29:09.325Z,9.91
2018-01-29T02:31:36.875Z,9.88
2018-01-29T02:34:04.339Z,9.87
2018-01-29T02:36:31.781Z,9.81
2018-01-29T02:38:59.244Z,9.85
2018-01-29T02:41:26.710Z,9.81
2018-01-29T02:43:54.165Z,9.84
2018-01-29T02:46:21.631Z,9.86
2018-01-29T02:48:49.126Z,9.88
2018-01-29T02:51:16.568Z,9.83
2018-01-29T02:53:44.036Z,9.77
2018-01-29T02:56:11.485Z,9.67
2018-01-29T02:58:38.953Z,9.68
2018-01-29T03:01:06.494Z,9.70
2018-01-29T03:03:33.969Z,9.67
2018-01-29T03:06:01.486Z,9.64
2018-01-29T03:08:28.988Z,9.64
2018-01-29T03:10:56.453Z,9.59
2018-01-29T03:13:23.952Z,9.70
2018-01-29T03:15:51.489Z,9.72
2018-01-29T03:18:18.961Z,9.75
2018-01-29T03:20:46.420Z,9.76
2018-01-29T03:23:13.872Z,9.75
2018-01-29T03:25:41.332Z,9.73
2018-01-29T03:28:08.784Z,9.77
2018-01-29T03:30:36.256Z,9.75
2018-01-29T03:33:03.789Z,9.77
2018-01-29T03:35:31.358Z,9.84
2018-01-29T03:37:58.807Z,9.81
2018-01-29T03:40:26.277Z,9.81
2018-01-29T03:42:53.773Z,9.88
2018-01-29T03:45:21.240Z,9.87
2018-01-29T03:47:48.709Z,9.88
2018-01-29T03:50:16.174Z,9.88
2018-01-29T03:52:43.660Z,9.89
2018-01-29T03:55:11.127Z,9.81
2018-01-29T03:57:38.852Z,9.86
2018-01-29T04:00:06.376Z,9.88
2018-01-29T04:02:33.840Z,9.88
2018-01-29T04:05:01.310Z,9.92
2018-01-29T04:07:28.773Z,9.93
2018-01-29T04:09:56.253Z,9.86
2018-01-29T04:12:23.832Z,9.85
2018-01-29T04:14:51.310Z,9.89
2018-01-29T04:17:18.885Z,9.91
2018-01-29T04:19:46.441Z,9.89
2018-01-29T04:22:13.894Z,9.90
2018-01-29T04:24:41.365Z,9.95
2018-01-29T04:27:08.862Z,10.01
2018-01-29T04:29:36.428Z,10.00
2018-01-29T04:32:03.877Z,9.95
2018-01-29T04:34:31.332Z,9.94
2018-01-29T04:36:58.849Z,10.00
2018-01-29T04:39:26.322Z,10.02
2018-01-29T04:41:53.765Z,9.99
2018-01-29T04:44:21.995Z,9.97
2018-01-29T04:46:49.441Z,10.00
2018-01-29T04:49:16.912Z,9.98
2018-01-29T04:51:44.367Z,9.98
2018-01-29T04:54:11.889Z,9.97
2018-01-29T04:56:39.430Z,9.99
2018-01-29T04:59:06.895Z,10.01
2018-01-29T05:01:34.369Z,9.94
2018-01-29T05:04:01.924Z,9.92
2018-01-29T05:06:29.415Z,9.95
2018-01-29T05:08:56.986Z,9.95
2018-01-29T05:11:24.469Z,9.99
2018-01-29T05:13:52.017Z,10.02
2018-01-29T05:16:19.492Z,9.98
2018-01-29T05:18:46.992Z,9.96
2018-01-29T05:21:14.803Z,9.86
2018-01-29T05:23:42.338Z,9.88
2018-01-29T05:26:09.901Z,9.89
2018-01-29T05:28:37.467Z,9.88
2018-01-29T05:31:05.025Z,9.89
2018-01-29T05:33:32.559Z,9.90
2018-01-29T05:36:05.611Z,9.91
2018-01-29T05:38:33.126Z,9.93
2018-01-29T05:41:00.644Z,9.99
2018-01-29T05:43:28.109Z,9.96
2018-01-29T05:45:55.549Z,9.94
2018-01-29T05:48:23.034Z,9.94
2018-01-29T05:50:50.494Z,9.91
2018-01-29T05:53:18.013Z,9.95
2018-01-29T05:55:45.481Z,9.91
2018-01-29T05:58:12.940Z,9.93
2018-01-29T06:00:40.417Z,9.72
2018-01-29T06:03:07.906Z,9.71
2018-01-29T06:05:35.393Z,9.59
2018-01-29T06:08:02.845Z,9.59
2018-01-29T06:10:30.322Z,9.55
2018-01-29T06:12:57.768Z,9.51
2018-01-29T06:15:25.333Z,9.44
2018-01-29T06:17:52.812Z,9.42
2018-01-29T06:20:20.268Z,9.38
2018-01-29T06:22:47.729Z,9.42
2018-01-29T06:25:15.421Z,9.42
2018-01-29T06:27:42.898Z,9.44
2018-01-29T06:30:10.481Z,9.47
2018-01-29T06:32:37.925Z,9.52
2018-01-29T06:35:05.522Z,9.62
2018-01-29T06:37:33.016Z,9.64
2018-01-29T06:40:00.565Z,9.61
2018-01-29T06:42:28.013Z,9.64
2018-01-29T06:44:55.459Z,9.70
2018-01-29T06:47:22.966Z,9.65
2018-01-29T06:49:50.426Z,9.59
2018-01-29T06:52:17.904Z,9.63
2018-01-29T06:54:45.385Z,9.64
2018-01-29T06:57:12.846Z,9.65
2018-01-29T06:59:40.314Z,9.55
2018-01-29T07:02:07.834Z,9.64
2018-01-29T07:04:35.364Z,9.65
2018-01-29T07:07:02.886Z,9.65
2018-01-29T07:09:30.401Z,9.73
2018-01-29T07:11:57.877Z,9.84
2018-01-29T07:14:25.352Z,9.83
2018-01-29T07:16:52.821Z,9.84
2018-01-29T07:19:20.296Z,9.86
2018-01-29T07:21:47.745Z,9.81
2018-01-29T07:24:15.211Z,9.74
2018-01-29T07:26:42.656Z,9.80
2018-01-29T07:29:10.178Z,9.84
2018-01-29T07:31:37.653Z,9.86
2018-01-29T07:34:05.121Z,9.95
2018-01-29T07:36:32.573Z,9.88
2018-01-29T07:39:00.053Z,9.88
2018-01-29T07:41:27.514Z,9.91
2018-01-29T07:43:54.976Z,9.91
2018-01-29T07:46:22.478Z,9.99
2018-01-29T07:48:50.044Z,10.00
2018-01-29T07:51:17.517Z,9.95
2018-01-29T07:53:44.993Z,10.05
2018-01-29T07:56:12.509Z,10.07
2018-01-29T07:58:39.991Z,10.08
2018-01-29T08:01:07.512Z,10.14
2018-01-29T08:03:34.991Z,10.13
2018-01-29T08:06:02.464Z,10.24
2018-01-29T08:08:29.933Z,10.25
2018-01-29T08:10:57.406Z,10.44
2018-01-29T08:13:24.962Z,10.58
2018-01-29T08:15:53.251Z,10.59
2018-01-29T08:18:20.807Z,10.65
2018-01-29T08:20:48.312Z,11.01
2018-01-29T08:23:15.791Z,11.19
2018-01-29T08:25:43.287Z,11.44
2018-01-29T08:28:10.782Z,11.53
2018-01-29T08:30:38.284Z,12.08
2018-01-29T08:33:05.768Z,12.23
2018-01-29T08:35:33.327Z,11.83
2018-01-29T08:38:00.790Z,11.58
2018-01-29T08:40:28.257Z,11.43
2018-01-29T08:42:55.763Z,11.07
2018-01-29T08:45:23.251Z,10.93
2018-01-29T08:47:50.769Z,10.90
2018-01-29T08:50:18.287Z,10.79
2018-01-29T08:52:45.819Z,10.80
2018-01-29T08:55:13.377Z,10.72
2018-01-29T08:57:40.761Z,10.64
2018-01-29T09:00:08.231Z,10.61
2018-01-29T09:02:35.814Z,10.58
2018-01-29T09:05:03.264Z,10.65
2018-01-29T09:07:30.793Z,10.64
2018-01-29T09:09:58.317Z,10.66
2018-01-29T09:12:25.881Z,10.66
2018-01-29T09:14:53.473Z,10.73
2018-01-29T09:17:20.968Z,10.73
2018-01-29T09:19:48.505Z,10.73
2018-01-29T09:22:16.014Z,10.88
2018-01-29T09:24:43.481Z,10.96
2018-01-29T09:27:10.950Z,11.02
2018-01-29T09:29:38.462Z,10.96
2018-01-29T09:32:05.944Z,10.93
2018-01-29T09:34:33.457Z,11.06
2018-01-29T09:37:00.926Z,11.18
2018-01-29T09:39:28.418Z,11.06
2018-01-29T09:41:55.870Z,11.09
2018-01-29T09:44:23.424Z,11.10
2018-01-29T09:46:50.900Z,11.06
2018-01-29T09:49:18.390Z,10.98
2018-01-29T09:51:45.869Z,10.97
2018-01-29T09:54:13.341Z,10.95
2018-01-29T09:56:40.819Z,10.99
2018-01-29T09:59:08.290Z,10.96
2018-01-29T10:01:35.821Z,10.95
2018-01-29T10:04:03.381Z,10.98
2018-01-29T10:06:30.950Z,10.93
2018-01-29T10:08:58.405Z,11.03
2018-01-29T10:11:25.866Z,10.96
2018-01-29T10:13:53.318Z,10.88
2018-01-29T10:16:20.781Z,10.82
2018-01-29T10:18:48.239Z,10.81
2018-01-29T10:21:15.722Z,10.91
2018-01-29T10:23:43.194Z,10.95
2018-01-29T10:26:10.644Z,10.92
2018-01-29T10:28:38.131Z,10.93
2018-01-29T10:31:05.607Z,11.00
2018-01-29T10:33:33.129Z,11.03
2018-01-29T10:36:00.624Z,11.16
2018-01-29T10:38:28.174Z,11.25
2018-01-29T10:40:55.649Z,11.31
2018-01-29T10:43:23.107Z,11.32
2018-01-29T10:45:50.576Z,11.30
2018-01-29T10:48:18.185Z,11.27
2018-01-29T10:50:45.677Z,11.35
2018-01-29T10:53:13.135Z,11.45
2018-01-29T10:55:40.603Z,11.39
2018-01-29T10:58:08.049Z,11.28
2018-01-29T11:00:41.244Z,11.29
2018-01-29T11:03:08.709Z,11.26
2018-01-29T11:05:36.184Z,11.23
2018-01-29T11:08:03.635Z,11.33
2018-01-29T11:10:31.097Z,11.31
2018-01-29T11:12:58.593Z,11.26
2018-01-29T11:15:26.091Z,11.37
2018-01-29T11:17:53.581Z,11.43
2018-01-29T11:20:21.070Z,11.60
2018-01-29T11:22:48.609Z,11.61
2018-01-29T11:25:16.059Z,11.52
2018-01-29T11:27:43.525Z,11.58
2018-01-29T11:30:10.996Z,11.59
2018-01-29T11:32:38.463Z,11.63
2018-01-29T11:35:05.918Z,11.56
2018-01-29T11:37:33.379Z,11.59
2018-01-29T11:40:00.829Z,11.54
2018-01-29T11:42:28.301Z,11.51
2018-01-29T11:44:55.825Z,11.48
2018-01-29T11:47:23.295Z,11.45
2018-01-29T11:49:50.761Z,11.33
2018-01-29T11:52:18.321Z,11.33
2018-01-29T11:54:45.777Z,11.39
2018-01-29T11:57:13.271Z,11.26
2018-01-29T11:59:40.753Z,11.34
2018-01-29T12:02:08.226Z,11.41
2018-01-29T12:04:35.670Z,11.49
2018-01-29T12:07:03.144Z,11.62
2018-01-29T12:09:30.604Z,11.59
2018-01-29T12:11:58.081Z,11.47
2018-01-29T12:14:25.543Z,11.57
2018-01-29T12:16:53.008Z,11.47
2018-01-29T12:19:20.523Z,11.46
2018-01-29T12:21:47.954Z,11.39
2018-01-29T12:24:15.409Z,11.45
2018-01-29T12:26:42.861Z,11.43
2018-01-29T12:29:10.348Z,11.36
2018-01-29T12:31:37.801Z,11.41
2018-01-29T12:34:05.277Z,11.45
2018-01-29T12:36:32.737Z,11.51
2018-01-29T12:39:00.219Z,11.49
2018-01-29T12:41:27.679Z,11.57
2018-01-29T12:43:55.145Z,11.57
2018-01-29T12:46:22.618Z,11.63
2018-01-29T12:48:50.074Z,11.58
2018-01-29T12:51:17.541Z,11.63
2018-01-29T12:53:45.028Z,11.63
2018-01-29T12:56:12.501Z,11.62
2018-01-29T12:58:39.948Z,11.52
2018-01-29T13:01:07.468Z,11.51
2018-01-29T13:03:34.996Z,11.61
2018-01-29T13:06:02.461Z,11.72
2018-01-29T13:08:29.966Z,11.69
2018-01-29T13:10:57.487Z,11.71
2018-01-29T13:13:24.949Z,11.63
2018-01-29T13:15:52.450Z,11.61
2018-01-29T13:18:19.905Z,11.59
2018-01-29T13:20:47.352Z,11.59
2018-01-29T13:23:14.814Z,11.64
2018-01-29T13:25:42.258Z,11.65
2018-01-29T13:28:09.792Z,11.64
2018-01-29T13:30:37.280Z,11.69
2018-01-29T13:33:04.751Z,11.65
2018-01-29T13:35:32.298Z,11.68
2018-01-29T13:37:59.861Z,11.69
2018-01-29T13:40:27.321Z,11.67
2018-01-29T13:42:54.794Z,11.65
2018-01-29T13:45:22.249Z,11.69
2018-01-29T13:47:49.728Z,11.67
2018-01-29T13:50:17.190Z,11.65
2018-01-29T13:52:44.667Z,11.61
2018-01-29T13:55:12.135Z,11.59
2018-01-29T13:57:39.597Z,11.51
2018-01-29T14:00:07.108Z,11.51
2018-01-29T14:02:34.566Z,11.49
2018-01-29T14:05:02.046Z,11.43
2018-01-29T14:07:29.520Z,11.49
2018-01-29T14:09:57.002Z,11.62
2018-01-29T14:12:24.548Z,11.54
2018-01-29T14:14:52.120Z,11.54
2018-01-29T14:17:19.581Z,11.56
2018-01-29T14:19:47.048Z,11.57
2018-01-29T14:22:14.543Z,11.59
2018-01-29T14:24:42.213Z,11.62
2018-01-29T14:27:09.784Z,11.56
2018-01-29T14:29:37.253Z,11.58
2018-01-29T14:32:04.738Z,11.61
2018-01-29T14:34:32.188Z,11.54
2018-01-29T14:36:59.686Z,11.48
2018-01-29T14:39:27.135Z,11.50
2018-01-29T14:41:54.608Z,11.47
2018-01-29T14:44:22.082Z,11.52
2018-01-29T14:46:49.654Z,11.53
2018-01-29T14:49:17.111Z,11.57
2018-01-29T14:51:44.600Z,11.54
2018-01-29T14:54:12.054Z,11.49
2018-01-29T14:56:39.516Z,11.48
2018-01-29T14:59:06.970Z,11.51
2018-01-29T15:01:34.430Z,11.48
2018-01-29T15:04:01.879Z,11.41
2018-01-29T15:06:29.360Z,11.39
2018-01-29T15:08:56.864Z,11.38
2018-01-29T15:11:24.312Z,11.37
2018-01-29T15:13:51.778Z,11.31
2018-01-29T15:16:19.254Z,11.30
2018-01-29T15:18:46.761Z,11.37
2018-01-29T15:21:14.230Z,11.31
2018-01-29T15:23:41.714Z,11.30
2018-01-29T15:26:09.179Z,11.30
2018-01-29T15:28:36.652Z,11.27
2018-01-29T15:31:04.114Z,11.17
2018-01-29T15:33:31.569Z,11.17
2018-01-29T15:35:59.060Z,11.13
2018-01-29T15:38:26.629Z,11.16
2018-01-29T15:40:54.152Z,11.11
2018-01-29T15:43:21.599Z,11.15
2018-01-29T15:45:49.073Z,11.09
2018-01-29T15:48:16.532Z,11.08
2018-01-29T15:50:44.079Z,11.02
2018-01-29T15:53:11.561Z,10.99
2018-01-29T15:55:39.129Z,11.06
2018-01-29T15:58:06.718Z,11.07
2018-01-29T16:00:34.201Z,11.02
2018-01-29T16:03:01.653Z,11.02
2018-01-29T16:05:29.160Z,10.99
2018-01-29T16:07:56.612Z,10.94
2018-01-29T16:10:24.169Z,11.00
2018-01-29T16:12:51.636Z,10.99
2018-01-29T16:15:19.107Z,10.98
2018-01-29T16:17:46.582Z,10.88
2018-01-29T16:20:14.057Z,10.86
2018-01-29T16:22:41.522Z,10.89
2018-01-29T16:25:09.009Z,10.86
2018-01-29T16:27:36.542Z,10.84
2018-01-29T16:30:04.047Z,10.85
2018-01-29T16:32:31.525Z,10.84
2018-01-29T16:34:58.994Z,10.85
2018-01-29T16:37:26.549Z,10.82
2018-01-29T16:39:54.131Z,10.83
2018-01-29T16:42:21.626Z,10.78
2018-01-29T16:44:49.092Z,10.78
2018-01-29T16:47:16.641Z,10.75
2018-01-29T16:49:44.257Z,10.70
2018-01-29T16:52:11.722Z,10.72
2018-01-29T16:54:39.196Z,10.71
2018-01-29T16:57:06.713Z,10.66
2018-01-29T16:59:34.161Z,10.68
2018-01-29T17:02:01.635Z,10.66
2018-01-29T17:04:29.117Z,10.66
2018-01-29T17:06:56.585Z,10.66
2018-01-29T17:09:24.058Z,10.65
2018-01-29T17:11:51.576Z,10.66
2018-01-29T17:14:19.117Z,10.64
2018-01-29T17:16:46.595Z,10.64
2018-01-29T17:19:14.054Z,10.68
2018-01-29T17:21:41.513Z,10.65
2018-01-29T17:24:09.020Z,10.62
2018-01-29T17:26:36.593Z,10.60
2018-01-29T17:29:04.148Z,10.55
2018-01-29T17:31:31.725Z,10.56
2018-01-29T17:33:59.218Z,10.59
2018-01-29T17:36:26.676Z,10.61
2018-01-29T17:38:54.130Z,10.51
2018-01-29T17:41:21.634Z,10.52
2018-01-29T17:43:49.188Z,10.62
2018-01-29T17:46:16.648Z,10.57
2018-01-29T17:48:44.174Z,10.57
2018-01-29T17:51:11.686Z,10.61
2018-01-29T17:53:39.199Z,10.57
2018-01-29T17:56:06.785Z,10.56
2018-01-29T17:58:34.364Z,10.56
2018-01-29T18:01:01.933Z,10.57
2018-01-29T18:03:29.448Z,10.58
2018-01-29T18:05:56.922Z,10.54
2018-01-29T18:08:24.432Z,10.54
2018-01-29T18:10:51.944Z,10.54
2018-01-29T18:13:19.419Z,10.51
2018-01-29T18:15:46.958Z,10.53
2018-01-29T18:20:48.192Z,10.52
2018-01-29T18:23:15.680Z,10.45
2018-01-29T18:25:43.206Z,10.46
2018-01-29T18:28:10.839Z,10.47
2018-01-29T18:30:38.327Z,10.52
2018-01-29T18:33:06.226Z,10.52
2018-01-29T18:35:33.802Z,10.54
2018-01-29T18:38:01.320Z,10.46
2018-01-29T18:40:28.823Z,10.43
2018-01-29T18:42:56.336Z,10.45
2018-01-29T18:45:23.786Z,10.47
2018-01-29T18:47:51.261Z,10.51
2018-01-29T18:50:18.759Z,10.53
2018-01-29T18:52:46.294Z,10.55
2018-01-29T18:55:13.860Z,10.57
2018-01-29T18:57:41.409Z,10.61
2018-01-29T19:00:08.902Z,10.56
2018-01-29T19:02:37.012Z,10.58
2018-01-29T19:05:04.480Z,10.53
2018-01-29T19:07:32.034Z,10.54
2018-01-29T19:09:59.570Z,10.53
2018-01-29T19:12:27.033Z,10.58
2018-01-29T19:14:54.647Z,10.54
2018-01-29T19:17:22.140Z,10.52
2018-01-29T19:19:49.607Z,10.53
2018-01-29T19:22:17.116Z,10.51
2018-01-29T19:24:44.590Z,10.54
2018-01-29T19:27:12.109Z,10.51
2018-01-29T19:29:39.656Z,10.45
2018-01-29T19:32:07.288Z,10.51
2018-01-29T19:34:34.804Z,10.55
2018-01-29T19:37:02.505Z,10.49
2018-01-29T19:39:30.009Z,10.53
2018-01-29T19:41:57.571Z,10.56
2018-01-29T19:44:25.086Z,10.54
2018-01-29T19:46:52.553Z,10.60
2018-01-29T19:49:20.061Z,10.59
2018-01-29T19:51:47.543Z,10.59
2018-01-29T19:54:15.049Z,10.64
2018-01-29T19:56:42.590Z,10.64
2018-01-29T19:59:10.161Z,10.63
2018-01-29T20:01:37.678Z,10.58
2018-01-29T20:04:05.840Z,10.61
2018-01-29T20:06:33.699Z,10.48
2018-01-29T20:09:01.181Z,10.30
2018-01-29T20:11:28.637Z,10.09
2018-01-29T20:13:56.144Z,9.91
2018-01-29T20:16:23.644Z,9.83
2018-01-29T20:18:51.269Z,9.71
2018-01-29T20:21:18.840Z,9.66
2018-01-29T20:23:46.379Z,9.70
2018-01-29T20:26:13.838Z,9.69
2018-01-29T20:28:41.409Z,9.62
2018-01-29T20:31:08.880Z,9.61
2018-01-29T20:33:36.407Z,9.58
2018-01-29T20:36:03.960Z,9.60
2018-01-29T20:38:31.508Z,9.64
2018-01-29T20:40:59.044Z,9.69
2018-01-29T20:43:26.578Z,9.68
2018-01-29T20:45:54.040Z,9.73
2018-01-29T20:48:21.510Z,9.74
2018-01-29T20:50:49.023Z,9.73
2018-01-29T20:53:16.477Z,9.80
2018-01-29T20:55:43.968Z,9.80
2018-01-29T20:58:11.532Z,9.86
2018-01-29T21:00:39.079Z,9.94
2018-01-29T21:03:06.652Z,9.96
2018-01-29T21:05:34.169Z,10.06
2018-01-29T21:08:01.702Z,10.11
2018-01-29T21:10:29.271Z,10.10
2018-01-29T21:12:56.736Z,10.08
2018-01-29T21:15:24.254Z,10.05
2018-01-29T21:17:51.753Z,10.02
2018-01-29T21:20:19.276Z,10.03
2018-01-29T21:22:46.771Z,9.99
2018-01-29T21:25:14.294Z,9.97
2018-01-29T21:27:41.811Z,9.96
2018-01-29T21:30:09.411Z,9.92
2018-01-29T21:32:36.900Z,9.90
2018-01-29T21:35:04.477Z,9.90
2018-01-29T21:37:31.971Z,9.84
2018-01-29T21:39:59.483Z,9.77
2018-01-29T21:42:26.930Z,9.69
2018-01-29T21:44:54.403Z,9.61
2018-01-29T21:47:21.915Z,9.56
2018-01-29T21:49:49.421Z,9.58
2018-01-29T21:52:16.929Z,9.55
2018-01-29T21:54:44.424Z,9.51
2018-01-29T21:57:13.744Z,9.53
2018-01-29T21:59:41.256Z,9.57
2018-01-29T22:02:08.819Z,9.61
2018-01-29T22:04:36.448Z,9.65
2018-01-29T22:07:03.967Z,9.64
2018-01-29T22:09:31.465Z,9.67
2018-01-29T22:11:58.938Z,9.73
2018-01-29T22:14:26.462Z,9.78
2018-01-29T22:16:53.979Z,9.79
2018-01-29T22:19:21.473Z,9.80
2018-01-29T22:21:49.068Z,9.86
2018-01-29T22:24:16.567Z,9.87
2018-01-29T22:26:44.031Z,9.85
2018-01-29T22:29:11.501Z,9.90
2018-01-29T22:31:39.032Z,9.87
2018-01-29T22:34:06.666Z,9.91
2018-01-29T22:36:34.168Z,9.93
2018-01-29T22:39:01.632Z,9.94
2018-01-29T22:41:29.095Z,9.90
2018-01-29T22:43:56.707Z,9.75
2018-01-29T22:46:24.245Z,9.40
2018-01-29T22:48:51.693Z,9.08
2018-01-29T22:51:19.203Z,8.85
2018-01-29T22:53:46.690Z,8.54
2018-01-29T22:56:14.156Z,8.28
2018-01-29T22:58:41.634Z,8.04
2018-01-29T23:01:09.102Z,7.87
2018-01-29T23:03:36.641Z,7.81
2018-01-29T23:06:04.097Z,7.67
2018-01-29T23:08:31.536Z,7.58
2018-01-29T23:10:59.034Z,7.48
2018-01-29T23:13:26.866Z,7.46
2018-01-29T23:15:54.338Z,7.39
2018-01-29T23:18:21.887Z,7.37
2018-01-29T23:20:49.325Z,7.28
2018-01-29T23:23:16.817Z,7.31
2018-01-29T23:25:44.304Z,7.24
2018-01-29T23:28:11.761Z,7.24
2018-01-29T23:30:39.216Z,7.18
2018-01-29T23:33:06.770Z,7.14
2018-01-29T23:35:34.233Z,7.06
2018-01-29T23:38:01.700Z,7.03
2018-01-29T23:40:29.155Z,7.00
2018-01-29T23:42:56.633Z,7.00
2018-01-29T23:45:24.097Z,6.99
2018-01-29T23:47:51.578Z,7.00
2018-01-29T23:50:19.062Z,6.97
2018-01-29T23:52:46.546Z,6.98
2018-01-29T23:55:13.983Z,6.98
2018-01-29T23:57:41.444Z,6.93
